createdAt,value
2018-06-08T00:01:03.954Z,2.83
2018-06-08T00:03:31.893Z,2.67
2018-06-08T00:05:59.454Z,3.17
2018-06-08T00:08:27.019Z,2.37
2018-06-08T00:10:54.608Z,2.63
2018-06-08T00:13:22.176Z,2.67
2018-06-08T00:15:49.880Z,2.60
2018-06-08T00:18:17.435Z,2.43
2018-06-08T00:20:45.100Z,2.70
2018-06-08T00:23:12.636Z,2.63
2018-06-08T00:25:40.198Z,2.57
2018-06-08T00:28:07.776Z,3.00
2018-06-08T00:30:35.337Z,3.70
2018-06-08T00:33:02.997Z,2.40
2018-06-08T00:35:30.634Z,2.47
2018-06-08T00:37:58.189Z,2.80
2018-06-08T00:40:25.761Z,3.10
2018-06-08T00:42:53.416Z,2.67
2018-06-08T00:45:21.001Z,2.70
2018-06-08T00:47:48.550Z,2.50
2018-06-08T00:50:16.105Z,2.63
2018-06-08T00:52:43.673Z,2.60
2018-06-08T00:55:11.214Z,2.87
2018-06-08T00:57:38.759Z,2.70
2018-06-08T01:00:06.513Z,3.00
2018-06-08T01:02:34.128Z,2.33
2018-06-08T01:05:01.692Z,2.50
2018-06-08T01:07:29.259Z,3.07
2018-06-08T01:09:57.701Z,3.00
2018-06-08T01:12:25.336Z,2.60
2018-06-08T01:14:52.974Z,2.67
2018-06-08T01:17:20.591Z,2.53
2018-06-08T01:19:48.253Z,2.90
2018-06-08T01:22:15.837Z,2.30
2018-06-08T01:24:43.470Z,2.50
2018-06-08T01:27:11.082Z,2.80
2018-06-08T01:29:38.634Z,2.23
2018-06-08T01:32:06.205Z,2.40
2018-06-08T01:34:33.808Z,2.47
2018-06-08T01:37:01.478Z,3.03
2018-06-08T01:39:29.068Z,2.40
2018-06-08T01:41:56.697Z,2.67
2018-06-08T01:44:24.250Z,2.60
2018-06-08T01:46:51.817Z,2.67
2018-06-08T01:49:19.389Z,2.63
2018-06-08T01:51:46.941Z,2.57
2018-06-08T01:54:14.478Z,2.33
2018-06-08T01:56:42.038Z,3.00
2018-06-08T01:59:09.703Z,2.80
2018-06-08T02:01:37.278Z,2.53
2018-06-08T02:04:04.855Z,2.63
2018-06-08T02:06:32.432Z,2.73
2018-06-08T02:08:59.993Z,2.77
2018-06-08T02:11:27.625Z,2.40
2018-06-08T02:13:55.168Z,2.73
2018-06-08T02:16:22.745Z,2.40
2018-06-08T02:18:50.285Z,2.80
2018-06-08T02:21:17.845Z,2.50
2018-06-08T02:23:45.421Z,2.50
2018-06-08T02:26:12.952Z,3.77
2018-06-08T02:28:40.526Z,2.43
2018-06-08T02:31:08.060Z,2.53
2018-06-08T02:33:35.620Z,2.10
2018-06-08T02:36:03.294Z,2.47
2018-06-08T02:38:30.859Z,2.80
2018-06-08T02:40:58.415Z,2.97
2018-06-08T02:43:25.986Z,2.77
2018-06-08T02:45:53.542Z,2.67
2018-06-08T02:48:21.150Z,2.20
2018-06-08T02:50:48.675Z,2.50
2018-06-08T02:53:16.265Z,2.47
2018-06-08T02:55:43.804Z,3.10
2018-06-08T02:58:11.346Z,2.60
2018-06-08T03:00:39.499Z,2.80
2018-06-08T03:03:07.169Z,2.60
2018-06-08T03:05:34.752Z,2.30
2018-06-08T03:08:02.296Z,4.60
2018-06-08T03:10:29.832Z,2.97
2018-06-08T03:12:57.409Z,2.87
2018-06-08T03:15:24.958Z,2.87
2018-06-08T03:17:52.538Z,2.80
2018-06-08T03:20:20.078Z,2.90
2018-06-08T03:22:47.666Z,3.17
2018-06-08T03:25:15.205Z,2.70
2018-06-08T03:27:42.777Z,3.30
2018-06-08T03:30:10.285Z,2.60
2018-06-08T03:32:37.897Z,3.00
2018-06-08T03:35:05.521Z,2.50
2018-06-08T03:37:33.100Z,2.80
2018-06-08T03:40:00.634Z,3.10
2018-06-08T03:42:28.217Z,2.60
2018-06-08T03:44:55.777Z,3.23
2018-06-08T03:47:23.346Z,2.43
2018-06-08T03:49:50.976Z,2.80
2018-06-08T03:52:18.636Z,2.53
2018-06-08T03:54:46.229Z,2.70
2018-06-08T03:57:13.857Z,2.30
2018-06-08T03:59:41.414Z,2.73
2018-06-08T04:02:09.056Z,2.43
2018-06-08T04:04:36.650Z,2.73
2018-06-08T04:07:04.398Z,2.80
2018-06-08T04:09:32.027Z,2.70
2018-06-08T04:11:59.565Z,2.60
2018-06-08T04:14:27.153Z,2.90
2018-06-08T04:16:54.702Z,2.70
2018-06-08T04:19:22.293Z,2.67
2018-06-08T04:21:50.678Z,2.70
2018-06-08T04:24:18.345Z,2.90
2018-06-08T04:26:45.909Z,2.80
2018-06-08T04:29:13.491Z,2.57
2018-06-08T04:31:41.029Z,2.70
2018-06-08T04:34:08.674Z,2.50
2018-06-08T04:36:36.335Z,3.60
2018-06-08T04:39:06.407Z,2.60
2018-06-08T04:41:34.009Z,2.83
2018-06-08T04:44:01.670Z,2.80
2018-06-08T04:46:29.210Z,3.23
2018-06-08T04:48:56.764Z,3.27
2018-06-08T04:51:24.323Z,2.63
2018-06-08T04:53:51.901Z,2.50
2018-06-08T04:56:19.517Z,3.10
2018-06-08T04:58:47.089Z,2.77
2018-06-08T05:01:14.678Z,3.20
2018-06-08T05:03:42.244Z,3.87
2018-06-08T05:06:09.780Z,2.97
2018-06-08T05:08:37.429Z,3.00
2018-06-08T05:11:05.023Z,3.23
2018-06-08T05:13:32.610Z,2.63
2018-06-08T05:16:00.140Z,2.97
2018-06-08T05:18:27.754Z,3.50
2018-06-08T05:20:55.297Z,6.33
2018-06-08T05:23:22.892Z,3.97
2018-06-08T05:25:50.476Z,3.20
2018-06-08T05:28:18.174Z,3.30
2018-06-08T05:30:45.719Z,3.20
2018-06-08T05:33:13.314Z,3.43
2018-06-08T05:35:40.994Z,4.03
2018-06-08T05:38:08.560Z,3.17
2018-06-08T05:40:36.127Z,3.27
2018-06-08T05:43:03.784Z,2.80
2018-06-08T05:45:31.429Z,3.20
2018-06-08T05:47:59.086Z,3.00
2018-06-08T05:50:26.693Z,3.00
2018-06-08T05:52:54.248Z,2.97
2018-06-08T05:55:21.834Z,3.27
2018-06-08T05:57:49.456Z,3.77
2018-06-08T06:00:17.073Z,3.53
2018-06-08T06:02:44.659Z,2.80
2018-06-08T06:05:12.238Z,3.60
2018-06-08T06:07:39.770Z,4.10
2018-06-08T06:10:07.409Z,3.60
2018-06-08T06:12:34.995Z,3.27
2018-06-08T06:15:02.599Z,3.20
2018-06-08T06:17:30.228Z,3.67
2018-06-08T06:19:57.809Z,3.33
2018-06-08T06:22:25.365Z,3.93
2018-06-08T06:24:52.990Z,2.93
2018-06-08T06:27:20.538Z,3.27
2018-06-08T06:29:48.116Z,3.00
2018-06-08T06:32:15.697Z,2.57
2018-06-08T06:34:43.284Z,3.10
2018-06-08T06:37:10.824Z,3.37
2018-06-08T06:39:38.444Z,3.40
2018-06-08T06:42:05.984Z,3.90
2018-06-08T06:44:33.583Z,4.50
2018-06-08T06:47:01.465Z,3.43
2018-06-08T06:49:29.111Z,3.30
2018-06-08T06:51:56.644Z,3.53
2018-06-08T06:54:24.332Z,3.60
2018-06-08T06:56:51.960Z,3.83
2018-06-08T06:59:19.501Z,5.47
2018-06-08T07:01:47.108Z,3.27
2018-06-08T07:04:14.686Z,3.53
2018-06-08T07:06:42.319Z,3.40
2018-06-08T07:09:09.866Z,3.90
2018-06-08T07:11:37.460Z,3.73
2018-06-08T07:14:05.998Z,3.50
2018-06-08T07:16:33.722Z,4.13
2018-06-08T07:19:01.355Z,3.57
2018-06-08T07:21:28.935Z,3.70
2018-06-08T07:23:56.499Z,4.00
2018-06-08T07:26:24.099Z,5.17
2018-06-08T07:28:51.657Z,3.50
2018-06-08T07:31:19.237Z,3.77
2018-06-08T07:33:46.805Z,4.40
2018-06-08T07:36:14.398Z,3.70
2018-06-08T07:38:41.975Z,4.30
2018-06-08T07:41:09.615Z,3.90
2018-06-08T07:43:37.176Z,4.20
2018-06-08T07:46:04.746Z,3.67
2018-06-08T07:48:32.257Z,4.37
2018-06-08T07:50:59.820Z,4.10
2018-06-08T07:53:27.378Z,3.60
2018-06-08T07:55:54.959Z,3.37
2018-06-08T07:58:22.512Z,3.60
2018-06-08T08:00:50.463Z,3.47
2018-06-08T08:03:18.127Z,4.07
2018-06-08T08:05:45.693Z,4.23
2018-06-08T08:08:13.346Z,4.20
2018-06-08T08:10:40.899Z,4.40
2018-06-08T08:13:08.441Z,4.10
2018-06-08T08:15:36.123Z,4.00
2018-06-08T08:18:03.687Z,4.70
2018-06-08T08:20:31.255Z,4.27
2018-06-08T08:22:58.803Z,4.17
2018-06-08T08:25:26.397Z,4.40
2018-06-08T08:27:53.968Z,4.50
2018-06-08T08:30:21.522Z,4.43
2018-06-08T08:32:49.074Z,5.80
2018-06-08T08:35:16.613Z,4.83
2018-06-08T08:37:44.189Z,4.90
2018-06-08T08:40:11.702Z,4.40
2018-06-08T08:42:39.278Z,4.60
2018-06-08T08:45:06.816Z,4.90
2018-06-08T08:47:34.490Z,5.20
2018-06-08T08:50:02.042Z,4.77
2018-06-08T08:52:29.710Z,4.90
2018-06-08T08:54:57.265Z,5.07
2018-06-08T08:57:24.837Z,5.37
2018-06-08T08:59:52.376Z,5.80
2018-06-08T09:02:20.050Z,4.70
2018-06-08T09:04:47.707Z,4.77
2018-06-08T09:07:15.299Z,4.63
2018-06-08T09:09:42.816Z,4.90
2018-06-08T09:12:10.401Z,5.20
2018-06-08T09:14:37.933Z,4.83
2018-06-08T09:17:05.692Z,4.43
2018-06-08T09:19:33.231Z,4.70
2018-06-08T09:22:00.813Z,4.47
2018-06-08T09:24:28.382Z,4.90
2018-06-08T09:26:55.943Z,5.10
2018-06-08T09:29:23.472Z,4.83
2018-06-08T09:31:51.059Z,5.10
2018-06-08T09:34:18.603Z,4.90
2018-06-08T09:36:46.270Z,5.47
2018-06-08T09:39:13.800Z,4.53
2018-06-08T09:41:41.394Z,4.60
2018-06-08T09:44:08.989Z,4.53
2018-06-08T09:46:36.553Z,5.30
2018-06-08T09:49:04.174Z,5.20
2018-06-08T09:51:31.835Z,5.00
2018-06-08T09:53:59.375Z,5.20
2018-06-08T09:56:27.029Z,6.10
2018-06-08T09:58:54.570Z,5.17
2018-06-08T10:01:22.172Z,5.53
2018-06-08T10:03:49.781Z,5.63
2018-06-08T10:06:17.327Z,5.30
2018-06-08T10:08:44.855Z,5.57
2018-06-08T10:11:12.491Z,5.33
2018-06-08T10:13:40.010Z,6.50
2018-06-08T10:16:07.562Z,7.20
2018-06-08T10:18:35.186Z,7.87
2018-06-08T10:21:03.665Z,7.97
2018-06-08T10:23:31.966Z,7.60
2018-06-08T10:25:59.531Z,7.60
2018-06-08T10:28:27.139Z,7.23
2018-06-08T10:30:54.721Z,6.73
2018-06-08T10:33:22.345Z,6.93
2018-06-08T10:35:49.981Z,6.10
2018-06-08T10:38:17.577Z,6.50
2018-06-08T10:40:45.129Z,6.50
2018-06-08T10:43:12.685Z,6.43
2018-06-08T10:45:40.432Z,6.00
2018-06-08T10:48:08.017Z,7.00
2018-06-08T10:50:35.573Z,7.10
2018-06-08T10:53:03.169Z,6.60
2018-06-08T10:55:30.707Z,6.80
2018-06-08T10:57:58.381Z,6.20
2018-06-08T11:00:25.940Z,6.10
2018-06-08T11:02:53.513Z,5.90
2018-06-08T11:05:21.070Z,5.90
2018-06-08T11:07:48.646Z,6.43
2018-06-08T11:10:16.154Z,6.40
2018-06-08T11:12:43.705Z,6.70
2018-06-08T11:15:11.238Z,6.27
2018-06-08T11:17:38.841Z,6.13
2018-06-08T11:20:06.746Z,6.80
2018-06-08T11:22:34.320Z,6.80
2018-06-08T11:25:01.878Z,7.10
2018-06-08T11:27:29.466Z,6.80
2018-06-08T11:29:57.160Z,7.40
2018-06-08T11:32:24.714Z,6.87
2018-06-08T11:34:52.259Z,7.63
2018-06-08T11:37:19.858Z,7.73
2018-06-08T11:39:47.391Z,7.27
2018-06-08T11:42:15.042Z,6.67
2018-06-08T11:44:42.888Z,7.03
2018-06-08T11:47:10.470Z,7.50
2018-06-08T11:49:38.060Z,7.30
2018-06-08T11:52:05.695Z,7.20
2018-06-08T11:54:33.355Z,6.90
2018-06-08T11:57:01.014Z,7.30
2018-06-08T11:59:28.539Z,7.17
2018-06-08T12:01:56.097Z,7.50
2018-06-08T12:04:24.040Z,7.50
2018-06-08T12:06:51.665Z,7.20
2018-06-08T12:09:19.222Z,7.03
2018-06-08T12:11:46.780Z,7.40
2018-06-08T12:14:14.328Z,8.10
2018-06-08T12:16:41.859Z,7.53
2018-06-08T12:19:09.509Z,7.27
2018-06-08T12:21:37.220Z,7.90
2018-06-08T12:24:04.845Z,7.87
2018-06-08T12:26:32.489Z,8.10
2018-06-08T12:29:00.160Z,7.60
2018-06-08T12:31:27.702Z,7.33
2018-06-08T12:33:55.228Z,7.80
2018-06-08T12:36:22.775Z,6.80
2018-06-08T12:38:50.341Z,7.40
2018-06-08T12:41:17.875Z,7.00
2018-06-08T12:43:45.888Z,7.33
2018-06-08T12:46:13.409Z,7.43
2018-06-08T12:48:40.995Z,6.33
2018-06-08T12:51:08.537Z,7.40
2018-06-08T12:53:36.121Z,7.27
2018-06-08T12:56:03.694Z,7.67
2018-06-08T12:58:31.293Z,7.50
2018-06-08T13:00:58.847Z,6.90
2018-06-08T13:03:26.417Z,7.10
2018-06-08T13:05:53.967Z,7.53
2018-06-08T13:08:21.494Z,7.17
2018-06-08T13:10:49.024Z,7.50
2018-06-08T13:13:16.584Z,7.27
2018-06-08T13:15:44.128Z,7.13
2018-06-08T13:18:11.769Z,7.70
2018-06-08T13:20:39.315Z,7.17
2018-06-08T13:23:06.860Z,7.60
2018-06-08T13:25:34.426Z,7.30
2018-06-08T13:28:01.970Z,7.17
2018-06-08T13:30:29.520Z,7.10
2018-06-08T13:32:57.064Z,7.57
2018-06-08T13:35:24.633Z,7.27
2018-06-08T13:37:52.189Z,7.23
2018-06-08T13:40:19.754Z,7.90
2018-06-08T13:42:47.285Z,7.50
2018-06-08T13:45:14.967Z,7.53
2018-06-08T13:47:42.502Z,7.43
2018-06-08T13:50:10.049Z,7.30
2018-06-08T13:52:37.579Z,7.47
2018-06-08T13:55:05.247Z,8.10
2018-06-08T13:57:32.902Z,7.50
2018-06-08T14:00:00.474Z,7.70
2018-06-08T14:02:28.047Z,8.20
2018-06-08T14:04:55.592Z,8.20
2018-06-08T14:07:23.129Z,7.50
2018-06-08T14:09:50.700Z,8.50
2018-06-08T14:12:18.281Z,8.00
2018-06-08T14:14:45.904Z,7.50
2018-06-08T14:17:13.445Z,7.70
2018-06-08T14:19:40.970Z,8.10
2018-06-08T14:22:08.476Z,7.80
2018-06-08T14:24:36.074Z,7.40
2018-06-08T14:27:03.678Z,7.57
2018-06-08T14:29:31.295Z,7.57
2018-06-08T14:31:58.837Z,7.67
2018-06-08T14:34:26.516Z,7.57
2018-06-08T14:36:54.066Z,7.30
2018-06-08T14:39:21.633Z,7.93
2018-06-08T14:41:49.229Z,8.13
2018-06-08T14:44:16.851Z,8.10
2018-06-08T14:46:44.394Z,7.50
2018-06-08T14:49:11.977Z,7.57
2018-06-08T14:51:39.519Z,8.53
2018-06-08T14:54:07.191Z,7.83
2018-06-08T14:56:34.761Z,7.60
2018-06-08T14:59:02.383Z,8.40
2018-06-08T15:01:29.966Z,8.20
2018-06-08T15:03:57.523Z,7.90
2018-06-08T15:06:25.083Z,7.90
2018-06-08T15:08:52.642Z,7.87
2018-06-08T15:11:20.273Z,7.60
2018-06-08T15:13:47.859Z,7.30
2018-06-08T15:16:15.733Z,7.30
2018-06-08T15:18:43.311Z,7.10
2018-06-08T15:21:10.894Z,7.20
2018-06-08T15:23:38.463Z,7.80
2018-06-08T15:26:06.015Z,7.37
2018-06-08T15:28:33.627Z,7.40
2018-06-08T15:31:01.209Z,6.83
2018-06-08T15:33:28.766Z,6.90
2018-06-08T15:35:56.370Z,7.00
2018-06-08T15:38:23.993Z,6.47
2018-06-08T15:40:51.539Z,7.07
2018-06-08T15:43:19.079Z,7.05
2018-06-08T15:45:46.646Z,6.35
2018-06-08T15:48:14.249Z,6.30
2018-06-08T15:50:41.774Z,6.78
2018-06-08T15:53:09.320Z,7.03
2018-06-08T15:55:36.961Z,6.70
2018-06-08T15:58:04.517Z,6.97
2018-06-08T16:00:32.095Z,6.55
2018-06-08T16:02:59.663Z,6.80
2018-06-08T16:05:27.256Z,6.53
2018-06-08T16:07:54.779Z,6.90
2018-06-08T16:10:22.448Z,6.97
2018-06-08T16:12:50.023Z,7.10
2018-06-08T16:15:17.585Z,7.20
2018-06-08T16:17:45.258Z,7.97
2018-06-08T16:20:12.755Z,7.53
2018-06-08T16:22:40.444Z,7.00
2018-06-08T16:25:07.974Z,7.03
2018-06-08T16:27:35.543Z,7.10
2018-06-08T16:30:03.647Z,7.57
2018-06-08T16:32:31.187Z,8.03
2018-06-08T16:34:58.693Z,7.13
2018-06-08T16:37:26.254Z,6.80
2018-06-08T16:39:53.803Z,7.50
2018-06-08T16:42:21.390Z,7.30
2018-06-08T16:44:48.909Z,7.73
2018-06-08T16:47:16.450Z,8.07
2018-06-08T16:49:43.995Z,7.77
2018-06-08T16:52:11.538Z,6.80
2018-06-08T16:54:39.169Z,7.70
2018-06-08T16:57:06.759Z,8.73
2018-06-08T16:59:34.293Z,7.20
2018-06-08T17:02:01.981Z,7.03
2018-06-08T17:04:29.512Z,7.47
2018-06-08T17:06:57.132Z,7.50
2018-06-08T17:09:24.655Z,7.40
2018-06-08T17:11:52.421Z,7.57
2018-06-08T17:14:20.033Z,7.90
2018-06-08T17:16:47.609Z,7.90
2018-06-08T17:19:15.188Z,7.80
2018-06-08T17:21:42.765Z,7.77
2018-06-08T17:24:10.301Z,8.20
2018-06-08T17:26:37.966Z,8.20
2018-06-08T17:29:05.506Z,7.60
2018-06-08T17:31:33.052Z,7.90
2018-06-08T17:34:00.606Z,7.70
2018-06-08T17:36:28.177Z,7.37
2018-06-08T17:38:55.795Z,7.60
2018-06-08T17:41:23.392Z,8.20
2018-06-08T17:43:50.954Z,8.30
2018-06-08T17:46:18.509Z,7.50
2018-06-08T17:48:46.074Z,8.47
2018-06-08T17:51:13.698Z,7.47
2018-06-08T17:53:41.244Z,7.77
2018-06-08T17:56:08.802Z,7.60
2018-06-08T17:58:36.403Z,7.73
2018-06-08T18:01:03.974Z,7.70
2018-06-08T18:03:31.540Z,7.77
2018-06-08T18:05:59.136Z,7.80
2018-06-08T18:08:26.708Z,7.70
2018-06-08T18:10:54.242Z,7.50
2018-06-08T18:13:21.798Z,7.87
2018-06-08T18:15:49.328Z,8.53
2018-06-08T18:18:16.922Z,7.83
2018-06-08T18:20:44.494Z,7.97
2018-06-08T18:23:12.077Z,8.10
2018-06-08T18:25:40.321Z,7.33
2018-06-08T18:28:08.351Z,7.80
2018-06-08T18:30:35.881Z,8.07
2018-06-08T18:33:03.461Z,8.70
2018-06-08T18:35:30.999Z,7.33
2018-06-08T18:37:58.596Z,7.90
2018-06-08T18:40:26.162Z,7.93
2018-06-08T18:42:53.738Z,7.30
2018-06-08T18:45:22.813Z,6.77
2018-06-08T18:47:50.580Z,7.50
2018-06-08T18:50:18.158Z,7.40
2018-06-08T18:52:45.705Z,6.50
2018-06-08T18:55:13.265Z,6.50
2018-06-08T18:57:40.857Z,6.23
2018-06-08T19:00:08.997Z,7.17
2018-06-08T19:02:36.650Z,6.80
2018-06-08T19:05:04.233Z,7.00
2018-06-08T19:07:31.884Z,6.73
2018-06-08T19:09:59.412Z,7.37
2018-06-08T19:12:26.946Z,6.53
2018-06-08T19:14:54.533Z,6.50
2018-06-08T19:17:22.134Z,6.33
2018-06-08T19:19:49.741Z,6.10
2018-06-08T19:22:17.338Z,6.10
2018-06-08T19:24:44.912Z,6.13
2018-06-08T19:27:12.552Z,6.30
2018-06-08T19:29:42.994Z,6.40
2018-06-08T19:32:10.535Z,6.00
2018-06-08T19:34:38.099Z,6.07
2018-06-08T19:37:05.646Z,6.50
2018-06-08T19:39:33.314Z,6.20
2018-06-08T19:42:00.852Z,5.87
2018-06-08T19:44:28.694Z,5.70
2018-06-08T19:46:56.355Z,5.00
2018-06-08T19:49:23.937Z,5.10
2018-06-08T19:51:51.480Z,5.33
2018-06-08T19:54:19.064Z,5.17
2018-06-08T19:56:46.609Z,5.37
2018-06-08T19:59:14.173Z,5.43
2018-06-08T20:01:41.755Z,5.03
2018-06-08T20:04:09.650Z,5.37
2018-06-08T20:06:37.279Z,5.57
2018-06-08T20:09:07.061Z,4.70
2018-06-08T20:11:34.601Z,5.00
2018-06-08T20:14:02.241Z,4.77
2018-06-08T20:16:30.261Z,4.90
2018-06-08T20:18:57.989Z,4.33
2018-06-08T20:21:26.434Z,4.80
2018-06-08T20:23:54.183Z,4.63
2018-06-08T20:26:21.725Z,4.80
2018-06-08T20:28:49.403Z,4.60
2018-06-08T20:31:16.952Z,4.50
2018-06-08T20:33:44.474Z,3.83
2018-06-08T20:36:12.038Z,4.37
2018-06-08T20:38:39.593Z,3.90
2018-06-08T20:41:07.377Z,4.27
2018-06-08T20:43:35.005Z,4.10
2018-06-08T20:46:02.629Z,4.47
2018-06-08T20:48:30.182Z,4.30
2018-06-08T20:50:57.758Z,3.97
2018-06-08T20:53:25.333Z,3.40
2018-06-08T20:55:52.911Z,4.43
2018-06-08T20:58:25.879Z,4.50
2018-06-08T21:00:53.412Z,3.63
2018-06-08T21:03:20.962Z,3.73
2018-06-08T21:05:48.547Z,3.90
2018-06-08T21:08:16.165Z,4.10
2018-06-08T21:10:43.770Z,3.80
2018-06-08T21:13:11.325Z,3.77
2018-06-08T21:15:38.958Z,4.00
2018-06-08T21:18:06.543Z,4.17
2018-06-08T21:20:34.099Z,4.10
2018-06-08T21:23:01.629Z,3.73
2018-06-08T21:25:29.237Z,3.87
2018-06-08T21:27:56.788Z,4.30
2018-06-08T21:30:24.386Z,3.70
2018-06-08T21:32:51.944Z,3.77
2018-06-08T21:35:19.632Z,3.90
2018-06-08T21:37:47.190Z,4.90
2018-06-08T21:40:14.766Z,5.17
2018-06-08T21:42:42.327Z,4.40
2018-06-08T21:45:09.876Z,5.03
2018-06-08T21:47:37.458Z,5.30
2018-06-08T21:50:05.109Z,5.93
2018-06-08T21:52:32.673Z,5.53
2018-06-08T21:55:00.218Z,5.30
2018-06-08T21:57:27.919Z,5.07
2018-06-08T21:59:55.425Z,4.90
2018-06-08T22:02:23.061Z,4.70
2018-06-08T22:04:50.618Z,3.73
2018-06-08T22:07:18.213Z,4.57
2018-06-08T22:09:45.806Z,3.83
2018-06-08T22:12:13.452Z,3.80
2018-06-08T22:14:40.997Z,3.57
2018-06-08T22:17:08.608Z,3.40
2018-06-08T22:19:36.303Z,2.83
2018-06-08T22:22:03.980Z,2.20
2018-06-08T22:24:31.574Z,2.47
2018-06-08T22:26:59.169Z,2.60
2018-06-08T22:29:26.866Z,1.90
2018-06-08T22:31:54.431Z,2.47
2018-06-08T22:34:21.978Z,2.03
2018-06-08T22:36:49.525Z,2.40
2018-06-08T22:39:17.067Z,1.57
2018-06-08T22:41:44.650Z,2.23
2018-06-08T22:44:12.414Z,2.80
2018-06-08T22:46:40.508Z,1.60
2018-06-08T22:49:08.106Z,1.40
2018-06-08T22:51:35.678Z,1.70
2018-06-08T22:54:03.257Z,1.20
2018-06-08T22:56:30.917Z,1.70
2018-06-08T22:58:58.572Z,1.33
2018-06-08T23:01:26.234Z,1.10
2018-06-08T23:03:53.896Z,1.67
2018-06-08T23:06:21.458Z,1.50
2018-06-08T23:08:49.030Z,1.67
2018-06-08T23:11:16.602Z,1.40
2018-06-08T23:13:44.188Z,1.30
2018-06-08T23:16:11.893Z,1.30
2018-06-08T23:18:39.480Z,1.20
2018-06-08T23:21:07.012Z,1.27
2018-06-08T23:23:34.597Z,1.30
2018-06-08T23:26:02.138Z,1.60
2018-06-08T23:28:29.729Z,1.27
2018-06-08T23:30:57.357Z,1.20
2018-06-08T23:33:24.905Z,1.17
2018-06-08T23:35:52.451Z,1.47
2018-06-08T23:38:20.035Z,1.53
2018-06-08T23:40:47.596Z,1.23
2018-06-08T23:43:15.162Z,1.47
2018-06-08T23:45:42.711Z,1.50
2018-06-08T23:48:10.254Z,1.43
2018-06-08T23:50:37.788Z,1.20
2018-06-08T23:53:05.336Z,1.63
2018-06-08T23:55:32.899Z,1.53
2018-06-08T23:58:00.537Z,1.47
